Nearby METAR Reports

 

KSFM - Sanford Muni, Maine, USA
Distance from station: E 3mi, 5km
Updated: Thu, 18-Oct-2018 10:56am EDT
Clear
Clear
 Wind from WNW
Wind: WNW 18 mph , 30 km/h, Gust: 29 mph , 46 km/h
Temperature: 39°F , 4°C
Wind Chill: 30°F , -1°C
Dew Point: 18°F , -8°C
Humidity: 42%
Barometer: 30.14 inHg , 1020.7 hPa
Clouds: Clear
Visibility: 10 miles , 16 km
2018/10/18 14:56 KSFM 181456Z AUTO 30016G25KT 270V340 10SM CLR 04/M08 A3014 RMK AO2 PK WND 29030/1433 SLP211 T00441083 50016
KDAW - Rochester, New Hampshire, USA
Distance from station: SW 10mi, 16km
Updated: Thu, 18-Oct-2018 10:51am EDT
Few Clouds
Few Clouds
 Wind from NW
Wind: NW 17 mph , 28 km/h, Gust: 25 mph , 41 km/h
Temperature: 39°F , 4°C
Wind Chill: 30°F , -1°C
Dew Point: 19°F , -7°C
Humidity: 45%
Barometer: 30.14 inHg , 1020.7 hPa
Clouds: Few Clouds
Visibility: 10 miles , 16 km
Cloud details: Few Clouds 5000 ft
2018/10/18 14:51 KDAW 181451Z AUTO 31015G22KT 10SM FEW050 04/M07 A3014 RMK AO2 PK WND 32039/1417 SLP207 T00441067 51016
 
KPSM - Portsmouth/Pease, New Hampshire, USA
Distance from station: S 22mi, 36km
Updated: Thu, 18-Oct-2018 10:56am EDT
Partly cloudy
Partly cloudy
 Wind from WNW
Wind: WNW 18 mph , 30 km/h, Gust: 25 mph , 41 km/h
Temperature: 41°F , 5°C
Wind Chill: 32°F , 0°C
Dew Point: 18°F , -8°C
Humidity: 39%
Barometer: 30.15 inHg , 1021 hPa
Clouds: Partly cloudy
Visibility: 10 miles , 16 km
Cloud details: Partly cloudy 5000 ft
2018/10/18 14:56 KPSM 181456Z 30016G22KT 10SM SCT050 05/M08 A3015 RMK AO2A PK WND 32034/44 SLP213 T00531079 51015
KPWM - Portland, Maine, USA
Distance from station: NE 30mi, 48km
Updated: Thu, 18-Oct-2018 10:51am EDT
Partly cloudy
Partly cloudy
 Wind from WNW
Wind: WNW 23 mph , 37 km/h, Gust: 36 mph , 57 km/h
Temperature: 41°F , 5°C
Wind Chill: 31°F , -1°C
Dew Point: 19°F , -7°C
Humidity: 42%
Barometer: 30.12 inHg , 1020 hPa
Clouds: Partly cloudy
Visibility: 10 miles , 16 km
Cloud details: Partly cloudy 5000 ft
2018/10/18 14:51 KPWM 181451Z 29020G31KT 10SM SCT050 05/M07 A3012 RMK AO2 PK WND 28032/1412 SLP200 T00501067 51016
 
KLCI - Laconia Muni, New Hampshire, USA
Distance from station: WNW 34mi, 55km
Updated: Thu, 18-Oct-2018 10:56am EDT
Mostly cloudy
Mostly cloudy
 Wind from W
Wind: W 9 mph , 15 km/h, Gust: 22 mph , 35 km/h
Temperature: 36°F , 2°C
Wind Chill: 29°F , -2°C
Dew Point: 18°F , -8°C
Humidity: 48%
Barometer: 30.18 inHg , 1022 hPa
Clouds: Mostly cloudy
Visibility: 10 miles , 16 km
Cloud details: Mostly cloudy 4800 ft
Mostly cloudy 5500 ft
2018/10/18 14:56 KLCI 181456Z AUTO 28008G19KT 240V310 10SM BKN048 BKN055 02/M08 A3018 RMK AO2 SLP237 60000 T00221083 51019 FZRANO
KCON - Concord, New Hampshire, USA
Distance from station: WSW 39mi, 62km
Updated: Thu, 18-Oct-2018 10:51am EDT
Clear
Clear
 Wind from WNW
Wind: WNW 18 mph , 30 km/h, Gust: 29 mph , 46 km/h
Temperature: 39°F , 4°C
Wind Chill: 30°F , -1°C
Dew Point: 19°F , -7°C
Humidity: 45%
Barometer: 30.18 inHg , 1022 hPa
Clouds: Clear
Visibility: 10 miles , 16 km
2018/10/18 14:51 KCON 181451Z AUTO 30016G25KT 10SM CLR 04/M07 A3018 RMK AO2 PK WND 30028/1419 SLP225 T00441072 50016
 
KIZG - Fryeburg, Maine, USA
Distance from station: NNW 42mi, 67km
Updated: Thu, 18-Oct-2018 10:54am EDT
Partly cloudy
Partly cloudy
 Wind from NW
Wind: NW 12 mph , 19 km/h, Gust: 28 mph , 44 km/h
Temperature: 37°F , 3°C
Wind Chill: 29°F , -2°C
Dew Point: 18°F , -8°C
Humidity: 45%
Barometer: 30.14 inHg , 1020.7 hPa
Clouds: Partly cloudy
Visibility: 10 miles , 16 km
Cloud details: Partly cloudy 4700 ft
2018/10/18 14:54 KIZG 181454Z AUTO 32010G24KT 10SM SCT047 03/M08 A3014 RMK AO2 SLP210 60000 T00331078 51018
KMHT - Manchester, New Hampshire, USA
Distance from station: SW 46mi, 74km
Updated: Thu, 18-Oct-2018 10:53am EDT
Partly cloudy
Partly cloudy
 Wind from NW
Wind: NW 18 mph , 30 km/h, Gust: 30 mph , 48 km/h
Temperature: 39°F , 4°C
Wind Chill: 30°F , -1°C
Dew Point: 14°F , -10°C
Humidity: 36%
Barometer: 30.18 inHg , 1022 hPa
Clouds: Partly cloudy
Visibility: 10 miles , 16 km
Cloud details: Partly cloudy 5500 ft
2018/10/18 14:53 KMHT 181453Z 31016G26KT 10SM SCT055 04/M10 A3018 RMK AO2 PK WND 32033/1436 SLP237 T00441100 50015
 
KLWM - Lawrence, Massachusetts, USA
Distance from station: SSW 50mi, 80km
Updated: Thu, 18-Oct-2018 10:54am EDT
Clear
Clear
 Wind from WNW
Wind: WNW 16 mph , 26 km/h, Gust: 25 mph , 41 km/h
Temperature: 43°F , 6°C
Wind Chill: 35°F , 2°C
Dew Point: 18°F , -8°C
Humidity: 36%
Barometer: 30.21 inHg , 1023 hPa
Clouds: Clear
Visibility: 10 miles , 16 km
2018/10/18 14:54 KLWM 181454Z 30014G22KT 10SM CLR 06/M08 A3021 RMK AO2 PK WND 30027/1357 SLP230 T00611078 51013